Time;durP1;ratioP1;P1;durP2;ratioP2;P2;SDS_P1;SDS_P2;PMS_P1;PMS_P2;Temp;Humidity;BMP_temperature;BMP_pressure;BME280_temperature;BME280_humidity;BME280_pressure;Samples;Min_cycle;Max_cycle;Signal;HPM_P1;HPM_P2
2022/10/14 00:00:32;;;;;;;58.97;35.40;;;;;;;;;;4955182;28;20936;-76
2022/10/14 00:02:58;;;;;;;65.85;36.35;;;;;;;;;;4980510;28;20026;-76
2022/10/14 00:05:24;;;;;;;53.25;31.80;;;;;;;;;;4968829;28;20041;-76
2022/10/14 00:07:52;;;;;;;53.33;32.08;;;;;;;;;;4948347;28;20140;-76
2022/10/14 00:10:19;;;;;;;51.20;32.78;;;;;;;;;;4955188;28;20045;-77
2022/10/14 00:12:46;;;;;;;47.53;30.85;;;;;;;;;;4954742;28;20256;-76
2022/10/14 00:15:12;;;;;;;75.07;45.33;;;;;;;;;;4953465;28;22354;-76
2022/10/14 00:17:43;;;;;;;75.80;46.75;;;;;;;;;;4944309;28;20037;-76
2022/10/14 00:20:18;;;;;;;74.30;45.17;;;;;;;;;;4947601;28;20038;-76
2022/10/14 00:22:44;;;;;;;84.45;44.65;;;;;;;;;;4964403;28;20125;-76
2022/10/14 00:25:11;;;;;;;67.57;40.90;;;;;;;;;;4969807;28;20061;-76
2022/10/14 00:27:36;;;;;;;64.63;39.63;;;;;;;;;;4961825;28;20048;-76
2022/10/14 00:30:09;;;;;;;65.57;40.10;;;;;;;;;;4954161;28;20886;-76
2022/10/14 00:32:35;;;;;;;63.40;38.47;;;;;;;;;;4913132;28;20044;-76
2022/10/14 00:35:01;;;;;;;58.25;36.72;;;;;;;;;;4946369;28;20042;-75
2022/10/14 00:37:32;;;;;;;68.40;36.55;;;;;;;;;;4973503;28;20034;-75
2022/10/14 00:40:01;;;;;;;56.15;34.17;;;;;;;;;;4957744;28;20040;-76
2022/10/14 00:42:33;;;;;;;62.65;35.17;;;;;;;;;;4949696;28;20076;-75
2022/10/14 00:45:02;;;;;;;60.97;35.58;;;;;;;;;;4968245;28;20155;-76
2022/10/14 00:47:28;;;;;;;52.88;33.95;;;;;;;;;;4962095;28;20073;-75
2022/10/14 00:49:53;;;;;;;52.90;33.00;;;;;;;;;;4963050;28;20973;-76
2022/10/14 00:52:23;;;;;;;48.97;30.75;;;;;;;;;;4981886;28;20993;-76
2022/10/14 00:54:55;;;;;;;52.60;35.35;;;;;;;;;;4970289;28;20034;-76
2022/10/14 00:57:28;;;;;;;58.55;37.20;;;;;;;;;;4964807;28;20067;-76
2022/10/14 00:59:58;;;;;;;58.38;36.55;;;;;;;;;;4965816;28;20381;-76
2022/10/14 01:02:29;;;;;;;;;;;;;;;;;;4961178;28;20756;-76
2022/10/14 01:04:55;;;;;;;52.78;35.10;;;;;;;;;;4966716;28;19917;-75
2022/10/14 01:07:29;;;;;;;60.92;37.00;;;;;;;;;;4956478;28;20079;-76
2022/10/14 01:09:58;;;;;;;57.17;35.40;;;;;;;;;;4961547;28;20041;-76
2022/10/14 01:12:44;;;;;;;50.00;33.45;;;;;;;;;;4963537;28;20041;-77
2022/10/14 01:15:25;;;;;;;57.78;35.25;;;;;;;;;;4952641;28;20038;-76
2022/10/14 01:17:51;;;;;;;54.17;33.13;;;;;;;;;;4967704;28;20137;-76
2022/10/14 01:20:36;;;;;;;51.60;32.92;;;;;;;;;;4958652;28;20042;-76
2022/10/14 01:23:04;;;;;;;54.13;33.58;;;;;;;;;;4964672;28;20064;-76
2022/10/14 01:25:55;;;;;;;57.13;33.95;;;;;;;;;;4946463;28;20076;-76
2022/10/14 01:28:32;;;;;;;49.45;31.45;;;;;;;;;;4957671;28;20050;-75
2022/10/14 01:31:03;;;;;;;47.88;31.38;;;;;;;;;;4968556;28;20049;-76
2022/10/14 01:33:42;;;;;;;63.47;36.75;;;;;;;;;;4970352;28;20048;-76
2022/10/14 01:36:22;;;;;;;61.40;36.38;;;;;;;;;;4967573;28;20033;-76
2022/10/14 01:38:50;;;;;;;58.17;33.58;;;;;;;;;;4952482;28;20086;-77
2022/10/14 01:41:21;;;;;;;68.18;35.55;;;;;;;;;;4958778;28;20046;-76
2022/10/14 01:43:56;;;;;;;59.03;35.10;;;;;;;;;;4942843;28;20862;-75
2022/10/14 01:46:25;;;;;;;60.22;34.88;;;;;;;;;;4967028;28;20045;-76
2022/10/14 01:48:54;;;;;;;66.50;38.17;;;;;;;;;;4957618;28;20159;-76
2022/10/14 01:51:26;;;;;;;69.28;38.97;;;;;;;;;;4965848;28;20221;-77
2022/10/14 01:53:57;;;;;;;67.97;37.65;;;;;;;;;;4964788;28;20187;-76
2022/10/14 01:56:28;;;;;;;70.78;38.95;;;;;;;;;;4967130;28;20034;-76
2022/10/14 01:58:58;;;;;;;66.38;38.83;;;;;;;;;;4946012;28;20038;-76
2022/10/14 02:01:26;;;;;;;66.18;38.60;;;;;;;;;;4961889;28;20033;-75
2022/10/14 02:03:52;;;;;;;79.15;40.72;;;;;;;;;;4972536;28;20497;-75
2022/10/14 02:06:26;;;;;;;84.10;42.22;;;;;;;;;;4957893;28;20164;-76
2022/10/14 02:09:10;;;;;;;74.50;40.60;;;;;;;;;;4979143;28;20030;-76
2022/10/14 02:11:58;;;;;;;89.20;45.35;;;;;;;;;;4966361;28;20040;-77
2022/10/14 02:14:26;;;;;;;84.90;45.35;;;;;;;;;;4958510;28;20190;-77
2022/10/14 02:17:06;;;;;;;105.18;57.80;;;;;;;;;;4964152;28;20155;-77
2022/10/14 02:19:32;;;;;;;101.93;55.20;;;;;;;;;;4962965;28;20037;-76
2022/10/14 02:22:03;;;;;;;125.57;57.58;;;;;;;;;;4973931;28;20034;-76
2022/10/14 02:24:34;;;;;;;112.65;56.33;;;;;;;;;;4966137;28;20029;-75
2022/10/14 02:27:01;;;;;;;94.57;49.70;;;;;;;;;;4953122;28;20144;-76
2022/10/14 02:29:27;;;;;;;123.40;58.45;;;;;;;;;;4955337;28;20045;-76
2022/10/14 02:31:57;;;;;;;118.00;54.50;;;;;;;;;;4975099;28;20995;-76
2022/10/14 02:34:24;;;;;;;126.75;59.60;;;;;;;;;;4964353;28;20056;-76
2022/10/14 02:36:51;;;;;;;120.72;59.03;;;;;;;;;;4955400;28;20132;-76
2022/10/14 02:39:20;;;;;;;124.85;57.65;;;;;;;;;;4964681;28;20053;-75
2022/10/14 02:41:48;;;;;;;128.73;58.63;;;;;;;;;;4973809;28;20520;-76
2022/10/14 02:44:14;;;;;;;126.65;56.75;;;;;;;;;;4958374;28;20042;-75
2022/10/14 02:46:43;;;;;;;122.10;55.40;;;;;;;;;;4965603;28;20038;-75
2022/10/14 02:49:09;;;;;;;116.47;52.72;;;;;;;;;;4951770;28;20226;-76
2022/10/14 02:51:34;;;;;;;118.35;54.60;;;;;;;;;;4954647;28;20041;-76
2022/10/14 02:54:01;;;;;;;124.55;57.22;;;;;;;;;;4956354;28;20127;-76
2022/10/14 02:56:29;;;;;;;136.23;56.63;;;;;;;;;;4969017;28;20113;-75
2022/10/14 02:58:55;;;;;;;131.13;57.38;;;;;;;;;;4960352;28;20838;-76
2022/10/14 03:01:23;;;;;;;139.73;59.70;;;;;;;;;;4964122;28;20065;-75
2022/10/14 03:03:57;;;;;;;134.98;59.60;;;;;;;;;;4970934;28;20038;-76
2022/10/14 03:06:31;;;;;;;133.90;59.97;;;;;;;;;;4920967;28;20046;-76
2022/10/14 03:09:00;;;;;;;150.18;62.83;;;;;;;;;;4949625;28;20042;-76
2022/10/14 03:11:27;;;;;;;159.38;65.22;;;;;;;;;;4968140;28;20030;-76
2022/10/14 03:13:52;;;;;;;150.68;65.60;;;;;;;;;;4954048;28;20049;-75
2022/10/14 03:16:18;;;;;;;152.18;67.88;;;;;;;;;;4976046;28;20908;-76
2022/10/14 03:18:48;;;;;;;167.77;69.80;;;;;;;;;;4974576;28;20782;-75
2022/10/14 03:21:13;;;;;;;169.77;72.53;;;;;;;;;;4967008;28;20029;-76
2022/10/14 03:23:38;;;;;;;152.10;70.05;;;;;;;;;;4970166;28;20797;-75
2022/10/14 03:26:04;;;;;;;163.10;71.07;;;;;;;;;;4961599;28;20898;-76
2022/10/14 03:28:37;;;;;;;146.30;70.05;;;;;;;;;;4973379;28;20037;-75
2022/10/14 03:31:03;;;;;;;136.82;65.22;;;;;;;;;;4975787;28;20155;-75
2022/10/14 03:33:31;;;;;;;117.88;59.45;;;;;;;;;;4946436;28;20026;-76
2022/10/14 03:35:57;;;;;;;147.13;70.25;;;;;;;;;;4955246;28;20037;-76
2022/10/14 03:38:23;;;;;;;161.40;76.80;;;;;;;;;;4980660;28;20041;-75
2022/10/14 03:40:49;;;;;;;171.13;78.10;;;;;;;;;;4963263;28;20858;-75
2022/10/14 03:43:14;;;;;;;165.98;75.30;;;;;;;;;;4970394;28;20044;-75
2022/10/14 03:45:40;;;;;;;186.40;75.38;;;;;;;;;;4966983;28;20120;-75
2022/10/14 03:48:05;;;;;;;168.70;69.97;;;;;;;;;;4973696;28;20045;-75
2022/10/14 03:50:34;;;;;;;196.13;74.20;;;;;;;;;;4935946;28;20037;-76
2022/10/14 03:52:59;;;;;;;179.73;72.45;;;;;;;;;;4971591;28;20035;-74
2022/10/14 03:56:22;;;;;;;;;;;;;;;;;;;;;
2022/10/14 03:59:16;;;;;;;197.80;72.50;;;;;;;;;;4862126;28;21237;-75
2022/10/14 04:02:29;;;;;;;196.68;77.35;;;;;;;;;;4872867;28;20185;-75
2022/10/14 04:05:13;;;;;;;259.20;83.10;;;;;;;;;;4937093;28;20037;-75
2022/10/14 04:07:42;;;;;;;241.40;80.68;;;;;;;;;;4913213;28;20042;-76
2022/10/14 04:10:11;;;;;;;237.10;80.15;;;;;;;;;;4908604;28;20033;-76
2022/10/14 04:12:43;;;;;;;207.68;77.20;;;;;;;;;;4906846;28;20100;-76
2022/10/14 04:15:14;;;;;;;212.93;76.40;;;;;;;;;;4932280;28;20049;-76
2022/10/14 04:17:48;;;;;;;197.70;71.70;;;;;;;;;;4921169;28;20561;-76
2022/10/14 04:20:16;;;;;;;227.88;72.57;;;;;;;;;;4923140;28;20041;-75
2022/10/14 04:22:51;;;;;;;205.73;71.00;;;;;;;;;;4940679;28;20038;-75
2022/10/14 04:25:25;;;;;;;197.55;68.15;;;;;;;;;;4905348;28;20033;-75
2022/10/14 04:28:06;;;;;;;192.07;69.97;;;;;;;;;;4928474;28;20050;-75
2022/10/14 04:30:38;;;;;;;195.20;69.38;;;;;;;;;;4886682;28;20120;-75
2022/10/14 04:33:15;;;;;;;202.60;72.50;;;;;;;;;;4927480;28;20042;-75
2022/10/14 04:36:08;;;;;;;182.10;71.53;;;;;;;;;;4894232;28;20745;-75
2022/10/14 04:39:33;;;;;;;201.48;71.03;;;;;;;;;;4886318;28;20035;-75
2022/10/14 04:41:44;;;;;;;190.25;68.30;;;;;;;;;;4908849;28;20042;-77
2022/10/14 04:44:10;;;;;;;185.68;67.97;;;;;;;;;;4923353;28;20054;-76
2022/10/14 04:46:38;;;;;;;187.70;66.85;;;;;;;;;;4914141;28;20050;-77
2022/10/14 04:49:08;;;;;;;168.20;64.57;;;;;;;;;;4923181;28;20061;-77
2022/10/14 04:51:42;;;;;;;156.30;59.70;;;;;;;;;;4941318;28;20061;-77
2022/10/14 04:54:10;;;;;;;152.63;58.80;;;;;;;;;;4893886;28;20034;-75
2022/10/14 04:56:39;;;;;;;;;;;;;;;;;;4921718;28;20074;-76
2022/10/14 04:59:12;;;;;;;144.37;56.40;;;;;;;;;;4905330;28;19925;-76
2022/10/14 05:01:38;;;;;;;144.35;55.17;;;;;;;;;;4959356;28;20046;-75
2022/10/14 05:04:12;;;;;;;131.63;51.05;;;;;;;;;;4966634;28;20037;-76
2022/10/14 05:07:01;;;;;;;148.15;53.55;;;;;;;;;;4963982;28;20069;-75
2022/10/14 05:09:26;;;;;;;135.77;51.75;;;;;;;;;;4934333;28;20037;-75
2022/10/14 05:11:57;;;;;;;142.98;53.45;;;;;;;;;;4963462;28;20034;-75
2022/10/14 05:14:41;;;;;;;119.47;50.42;;;;;;;;;;4957099;28;20052;-76
2022/10/14 05:17:17;;;;;;;139.38;50.45;;;;;;;;;;4930563;28;20041;-75
2022/10/14 05:19:48;;;;;;;129.32;49.83;;;;;;;;;;4899705;28;20034;-75
2022/10/14 05:22:33;;;;;;;138.43;49.20;;;;;;;;;;4873770;28;20043;-77
2022/10/14 05:25:06;;;;;;;;;;;;;;;;;;4881440;28;20038;-76
2022/10/14 05:27:32;;;;;;;122.03;46.35;;;;;;;;;;4880456;28;20007;-75
2022/10/14 05:30:07;;;;;;;125.22;47.90;;;;;;;;;;4861897;28;20083;-74
2022/10/14 05:32:33;;;;;;;124.47;48.15;;;;;;;;;;4855838;28;20110;-75
2022/10/14 05:35:07;;;;;;;;;;;;;;;;;;4868919;28;20099;-74
2022/10/14 05:37:45;;;;;;;140.85;50.15;;;;;;;;;;4898972;28;19961;-74
2022/10/14 05:40:25;;;;;;;142.05;50.53;;;;;;;;;;4885548;28;20039;-75
2022/10/14 05:42:55;;;;;;;146.00;51.85;;;;;;;;;;4897378;28;20058;-75
2022/10/14 05:45:25;;;;;;;167.25;53.20;;;;;;;;;;4903640;28;20049;-73
2022/10/14 05:48:31;;;;;;;171.38;52.72;;;;;;;;;;4886781;28;20126;-73
2022/10/14 05:51:44;;;;;;;;;;;;;;;;;;;;;
2022/10/14 05:54:23;;;;;;;147.93;54.22;;;;;;;;;;4904677;28;20632;-74
2022/10/14 05:56:52;;;;;;;165.02;55.28;;;;;;;;;;4940075;28;21198;-73
2022/10/14 05:59:24;;;;;;;176.88;54.58;;;;;;;;;;4950658;28;20029;-73
2022/10/14 06:01:56;;;;;;;170.55;54.80;;;;;;;;;;4961784;28;20840;-74
2022/10/14 06:04:22;;;;;;;126.97;49.78;;;;;;;;;;4963630;28;26953;-74
2022/10/14 06:06:48;;;;;;;144.55;49.85;;;;;;;;;;4963105;28;20037;-73
2022/10/14 06:09:14;;;;;;;125.07;47.05;;;;;;;;;;4943027;28;20160;-74
2022/10/14 06:11:43;;;;;;;113.85;44.97;;;;;;;;;;4974174;28;20057;-73
2022/10/14 06:14:09;;;;;;;120.68;44.22;;;;;;;;;;4956274;28;20137;-74
2022/10/14 06:16:37;;;;;;;102.55;41.47;;;;;;;;;;4948477;28;20730;-74
2022/10/14 06:19:09;;;;;;;105.60;39.97;;;;;;;;;;4941373;28;20037;-74
2022/10/14 06:21:41;;;;;;;100.78;40.28;;;;;;;;;;4961734;28;20182;-75
2022/10/14 06:24:13;;;;;;;94.57;39.63;;;;;;;;;;4963568;28;21540;-75
2022/10/14 06:26:48;;;;;;;83.20;37.33;;;;;;;;;;4957678;28;20049;-75
2022/10/14 06:29:25;;;;;;;115.30;40.55;;;;;;;;;;4930174;28;20037;-76
2022/10/14 06:31:52;;;;;;;79.20;34.47;;;;;;;;;;4960567;28;20041;-75
2022/10/14 06:34:24;;;;;;;80.55;35.50;;;;;;;;;;4962160;28;20036;-74
2022/10/14 06:36:55;;;;;;;73.90;34.45;;;;;;;;;;4956609;28;20115;-75
2022/10/14 06:39:21;;;;;;;74.55;33.90;;;;;;;;;;4950376;28;20042;-74
2022/10/14 06:41:49;;;;;;;62.97;30.52;;;;;;;;;;4957355;28;20778;-75
2022/10/14 06:44:20;;;;;;;66.80;31.73;;;;;;;;;;4969515;28;20061;-75
2022/10/14 06:46:45;;;;;;;65.35;29.90;;;;;;;;;;4968585;28;20034;-76
2022/10/14 06:49:11;;;;;;;68.97;31.85;;;;;;;;;;4960782;28;20679;-75
2022/10/14 06:51:38;;;;;;;79.35;30.38;;;;;;;;;;4958076;28;20362;-75
2022/10/14 06:54:04;;;;;;;69.18;30.35;;;;;;;;;;4961803;28;20064;-75
2022/10/14 06:56:30;;;;;;;75.20;31.98;;;;;;;;;;4963210;28;20034;-76
2022/10/14 06:58:56;;;;;;;73.72;31.92;;;;;;;;;;4968219;28;20684;-75
2022/10/14 07:01:22;;;;;;;70.15;31.45;;;;;;;;;;4959198;28;20372;-75
2022/10/14 07:03:51;;;;;;;63.38;30.48;;;;;;;;;;4961256;28;20325;-75
2022/10/14 07:06:16;;;;;;;67.97;30.60;;;;;;;;;;4962843;28;20190;-75
2022/10/14 07:08:42;;;;;;;72.75;30.67;;;;;;;;;;4962875;28;20537;-75
2022/10/14 07:11:07;;;;;;;58.30;26.98;;;;;;;;;;4945231;28;20057;-75
2022/10/14 07:13:36;;;;;;;81.57;30.23;;;;;;;;;;4961891;28;20280;-75
2022/10/14 07:16:02;;;;;;;69.43;28.42;;;;;;;;;;4967615;28;20417;-75
2022/10/14 07:18:27;;;;;;;68.53;28.20;;;;;;;;;;4955045;28;20075;-76
2022/10/14 07:20:53;;;;;;;72.82;26.83;;;;;;;;;;4963789;28;20589;-75
2022/10/14 07:23:18;;;;;;;59.05;25.30;;;;;;;;;;4966896;28;20030;-76
2022/10/14 07:25:43;;;;;;;64.07;25.55;;;;;;;;;;4961393;28;20119;-76
2022/10/14 07:28:12;;;;;;;65.85;25.58;;;;;;;;;;4954908;28;20040;-75
2022/10/14 07:30:37;;;;;;;56.40;24.38;;;;;;;;;;4963510;28;20183;-75
2022/10/14 07:33:05;;;;;;;58.65;24.83;;;;;;;;;;4939420;28;20074;-75
2022/10/14 07:35:31;;;;;;;49.50;22.60;;;;;;;;;;4960832;28;20410;-75
2022/10/14 07:37:58;;;;;;;54.20;23.35;;;;;;;;;;4957238;28;20135;-74
2022/10/14 07:40:23;;;;;;;46.05;22.55;;;;;;;;;;4960034;28;20387;-75
2022/10/14 07:42:49;;;;;;;51.25;23.30;;;;;;;;;;4947235;28;20544;-75
2022/10/14 07:45:17;;;;;;;39.75;22.30;;;;;;;;;;4963160;28;20770;-75
2022/10/14 07:47:49;;;;;;;43.77;23.40;;;;;;;;;;4961243;28;20119;-76
2022/10/14 07:50:21;;;;;;;46.10;24.50;;;;;;;;;;4965619;28;20516;-76
2022/10/14 07:52:47;;;;;;;45.65;25.73;;;;;;;;;;4959844;28;20453;-75
2022/10/14 07:55:15;;;;;;;45.40;25.10;;;;;;;;;;4967417;28;20037;-76
2022/10/14 07:57:43;;;;;;;51.70;24.85;;;;;;;;;;4971796;28;20332;-76
2022/10/14 08:00:11;;;;;;;48.08;25.80;;;;;;;;;;4970412;28;20714;-75
2022/10/14 08:02:39;;;;;;;48.55;26.00;;;;;;;;;;4945069;28;20037;-75
2022/10/14 08:05:05;;;;;;;44.35;25.33;;;;;;;;;;4976397;28;20065;-74
2022/10/14 08:07:32;;;;;;;51.88;27.85;;;;;;;;;;4963443;28;20079;-76
2022/10/14 08:10:00;;;;;;;45.33;25.40;;;;;;;;;;4970300;28;20045;-76
2022/10/14 08:12:26;;;;;;;45.13;26.23;;;;;;;;;;4958080;28;20152;-75
2022/10/14 08:14:53;;;;;;;65.93;35.20;;;;;;;;;;4955374;28;21551;-75
2022/10/14 08:17:37;;;;;;;66.63;34.47;;;;;;;;;;4968235;28;20041;-75
2022/10/14 08:20:04;;;;;;;66.32;34.55;;;;;;;;;;4970468;28;20491;-76
2022/10/14 08:22:29;;;;;;;60.70;30.90;;;;;;;;;;4970457;28;20041;-74
2022/10/14 08:24:55;;;;;;;76.82;32.85;;;;;;;;;;4965931;28;20034;-75
2022/10/14 08:27:25;;;;;;;72.32;35.17;;;;;;;;;;4958847;28;20498;-76
2022/10/14 08:29:54;;;;;;;66.35;35.05;;;;;;;;;;4969546;28;20750;-76
2022/10/14 08:32:24;;;;;;;69.07;34.47;;;;;;;;;;4976069;28;20039;-74
2022/10/14 08:34:54;;;;;;;75.03;40.45;;;;;;;;;;4964917;28;20094;-76
2022/10/14 08:37:25;;;;;;;68.95;37.13;;;;;;;;;;4971996;28;20619;-76
2022/10/14 08:39:50;;;;;;;62.25;37.45;;;;;;;;;;4953326;28;20156;-76
2022/10/14 08:42:37;;;;;;;79.20;49.92;;;;;;;;;;4970174;28;21734;-76
2022/10/14 08:45:08;;;;;;;70.68;39.25;;;;;;;;;;4956226;28;20033;-76
2022/10/14 08:47:35;;;;;;;68.40;39.17;;;;;;;;;;4969674;28;20160;-76
2022/10/14 08:50:24;;;;;;;68.03;37.97;;;;;;;;;;4974690;28;20928;-76
2022/10/14 08:53:00;;;;;;;82.90;37.72;;;;;;;;;;4968278;28;21733;-77
2022/10/14 08:55:26;;;;;;;59.63;32.85;;;;;;;;;;4961081;28;20036;-76
2022/10/14 08:57:55;;;;;;;56.45;31.98;;;;;;;;;;4967963;28;20100;-75
2022/10/14 09:00:21;;;;;;;61.58;32.33;;;;;;;;;;4960954;28;20095;-77
2022/10/14 09:02:51;;;;;;;59.50;32.65;;;;;;;;;;4946711;28;22617;-75
2022/10/14 09:05:27;;;;;;;57.53;32.35;;;;;;;;;;4938581;28;20045;-76
2022/10/14 09:07:55;;;;;;;70.35;33.85;;;;;;;;;;4966064;28;22285;-78
2022/10/14 09:10:25;;;;;;;67.30;33.65;;;;;;;;;;4967526;28;20861;-75
2022/10/14 09:12:54;;;;;;;63.53;34.00;;;;;;;;;;4967667;28;20217;-76
2022/10/14 09:15:42;;;;;;;84.15;35.67;;;;;;;;;;4961141;28;20049;-75
2022/10/14 09:18:26;;;;;;;72.75;40.65;;;;;;;;;;4957546;28;20382;-76
2022/10/14 09:20:57;;;;;;;74.50;36.55;;;;;;;;;;4953910;28;20057;-76
2022/10/14 09:23:24;;;;;;;70.28;34.58;;;;;;;;;;4964911;28;20148;-76
2022/10/14 09:25:57;;;;;;;75.68;35.55;;;;;;;;;;4941881;28;20098;-75
2022/10/14 09:28:43;;;;;;;55.80;33.90;;;;;;;;;;4970326;28;20501;-76
2022/10/14 09:31:12;;;;;;;74.80;38.95;;;;;;;;;;4954338;28;20293;-76
2022/10/14 09:33:41;;;;;;;60.67;30.73;;;;;;;;;;4961576;28;21976;-75
2022/10/14 09:36:20;;;;;;;66.10;34.25;;;;;;;;;;4949426;28;20038;-76
2022/10/14 09:38:50;;;;;;;61.10;33.00;;;;;;;;;;4955413;28;20040;-76
2022/10/14 09:41:29;;;;;;;60.72;32.30;;;;;;;;;;4940927;28;20049;-76
2022/10/14 09:44:24;;;;;;;61.67;33.55;;;;;;;;;;4940794;28;20044;-76
2022/10/14 09:47:02;;;;;;;50.63;29.25;;;;;;;;;;4953248;28;20049;-76
2022/10/14 09:49:37;;;;;;;55.08;30.35;;;;;;;;;;4932762;28;20603;-77
2022/10/14 09:52:03;;;;;;;46.85;25.38;;;;;;;;;;4965530;28;20041;-76
2022/10/14 09:54:33;;;;;;;57.72;27.95;;;;;;;;;;4966108;28;20560;-76
2022/10/14 09:57:04;;;;;;;53.53;25.83;;;;;;;;;;4964275;28;20045;-78
2022/10/14 09:59:32;;;;;;;43.58;22.13;;;;;;;;;;4963414;28;20045;-77
2022/10/14 10:02:00;;;;;;;33.17;18.40;;;;;;;;;;4949059;28;20333;-78
2022/10/14 10:04:46;;;;;;;36.50;19.95;;;;;;;;;;4952063;28;20071;-77
2022/10/14 10:07:25;;;;;;;38.78;22.23;;;;;;;;;;4920410;28;21506;-78
2022/10/14 10:10:04;;;;;;;34.35;19.45;;;;;;;;;;4941319;28;20105;-78
2022/10/14 10:12:33;;;;;;;37.20;20.60;;;;;;;;;;4939932;28;20065;-77
2022/10/14 10:15:03;;;;;;;50.97;29.35;;;;;;;;;;4957572;28;20194;-77
2022/10/14 10:17:31;;;;;;;66.20;48.83;;;;;;;;;;4957770;28;20038;-76
2022/10/14 10:20:19;;;;;;;100.80;75.78;;;;;;;;;;4961393;28;20060;-77
2022/10/14 10:22:58;;;;;;;104.00;73.93;;;;;;;;;;4964621;28;22590;-77
2022/10/14 10:25:35;;;;;;;;;;;;;;;;;;4955395;28;20445;-76
2022/10/14 10:28:14;;;;;;;120.32;96.13;;;;;;;;;;4945509;28;20404;-76
2022/10/14 10:31:01;;;;;;;122.93;96.72;;;;;;;;;;4963312;28;20038;-77
2022/10/14 10:33:53;;;;;;;95.18;67.82;;;;;;;;;;4940956;28;20471;-77
2022/10/14 10:36:30;;;;;;;106.43;71.13;;;;;;;;;;4935056;28;20445;-76
2022/10/14 10:39:07;;;;;;;93.35;64.28;;;;;;;;;;4947006;28;20060;-77
2022/10/14 10:41:52;;;;;;;113.80;61.22;;;;;;;;;;4956572;28;20034;-76
2022/10/14 10:44:24;;;;;;;105.45;61.53;;;;;;;;;;4945965;28;20065;-77
2022/10/14 10:47:13;;;;;;;99.63;51.47;;;;;;;;;;4929836;28;20468;-78
2022/10/14 10:49:51;;;;;;;93.38;56.47;;;;;;;;;;4931767;28;20087;-76
2022/10/14 10:52:29;;;;;;;98.95;60.15;;;;;;;;;;4931770;28;20273;-76
2022/10/14 10:55:09;;;;;;;59.20;40.15;;;;;;;;;;4956791;28;20106;-75
2022/10/14 10:57:48;;;;;;;54.30;40.28;;;;;;;;;;4925697;28;20111;-76
2022/10/14 11:00:19;;;;;;;50.42;34.22;;;;;;;;;;4952273;28;20057;-76
2022/10/14 11:03:21;;;;;;;45.20;24.15;;;;;;;;;;4959490;28;20066;-76
2022/10/14 11:06:08;;;;;;;30.50;18.75;;;;;;;;;;4947767;28;20655;-75
2022/10/14 11:14:29;;;;;;;30.77;26.02;;;;;;;;;;4918329;28;20610;-77
2022/10/14 11:17:08;;;;;;;27.58;20.27;;;;;;;;;;4920049;28;20666;-77
2022/10/14 11:19:36;;;;;;;24.92;19.63;;;;;;;;;;4942915;28;20036;-76
2022/10/14 11:22:10;;;;;;;31.48;27.00;;;;;;;;;;4957495;28;20180;-77
2022/10/14 11:24:44;;;;;;;22.10;18.27;;;;;;;;;;4946981;28;20573;-76
2022/10/14 11:27:16;;;;;;;22.15;17.27;;;;;;;;;;4943973;28;20582;-77
2022/10/14 11:29:45;;;;;;;21.80;16.65;;;;;;;;;;4930621;28;20037;-76
2022/10/14 11:32:13;;;;;;;15.55;13.85;;;;;;;;;;4908342;28;20549;-76
2022/10/14 11:34:39;;;;;;;21.67;17.58;;;;;;;;;;4970582;28;20616;-76
2022/10/14 11:37:05;;;;;;;24.33;18.60;;;;;;;;;;4962615;28;20187;-75
2022/10/14 11:39:54;;;;;;;26.70;18.90;;;;;;;;;;4967095;28;20671;-76
2022/10/14 11:42:42;;;;;;;28.33;20.17;;;;;;;;;;4950257;28;20072;-76
2022/10/14 11:45:17;;;;;;;31.50;23.80;;;;;;;;;;4941148;28;20910;-76
2022/10/14 11:47:44;;;;;;;30.15;20.42;;;;;;;;;;4956597;28;20545;-76
2022/10/14 11:50:15;;;;;;;25.90;18.15;;;;;;;;;;4944703;28;20468;-76
2022/10/14 11:53:03;;;;;;;21.83;18.15;;;;;;;;;;4976119;28;20084;-76
2022/10/14 11:55:34;;;;;;;11.10;9.80;;;;;;;;;;4965013;28;20037;-77
2022/10/14 11:58:03;;;;;;;15.60;10.82;;;;;;;;;;4963249;28;20766;-78
2022/10/14 12:00:30;;;;;;;19.98;14.57;;;;;;;;;;4962099;28;20050;-77
2022/10/14 12:02:56;;;;;;;25.33;19.38;;;;;;;;;;4964939;28;20029;-78
2022/10/14 12:05:25;;;;;;;26.55;20.73;;;;;;;;;;4963239;28;20486;-77
2022/10/14 12:07:57;;;;;;;25.70;19.38;;;;;;;;;;4958663;28;20306;-77
2022/10/14 12:10:27;;;;;;;24.63;19.88;;;;;;;;;;4953897;28;20033;-77
2022/10/14 12:12:53;;;;;;;24.30;19.15;;;;;;;;;;4971421;28;20101;-77
2022/10/14 12:15:19;;;;;;;14.63;12.30;;;;;;;;;;4971163;28;20048;-78
2022/10/14 12:17:45;;;;;;;18.05;13.05;;;;;;;;;;4946429;28;20296;-78
2022/10/14 12:20:32;;;;;;;12.82;9.98;;;;;;;;;;4963750;28;20139;-78
2022/10/14 12:22:58;;;;;;;12.68;9.93;;;;;;;;;;4973267;28;20392;-78
2022/10/14 12:25:29;;;;;;;10.18;6.60;;;;;;;;;;4965877;28;20474;-77
2022/10/14 12:27:55;;;;;;;7.28;4.38;;;;;;;;;;4957323;28;20151;-77
2022/10/14 12:30:41;;;;;;;7.70;4.90;;;;;;;;;;4979615;28;20488;-78
2022/10/14 12:33:11;;;;;;;10.65;5.05;;;;;;;;;;4956106;28;20126;-78
2022/10/14 12:35:50;;;;;;;5.45;2.83;;;;;;;;;;4977934;28;20042;-77
2022/10/14 12:38:19;;;;;;;7.18;3.10;;;;;;;;;;4966950;28;20038;-78
2022/10/14 12:40:47;;;;;;;6.10;3.30;;;;;;;;;;4955340;28;20120;-77
2022/10/14 12:43:18;;;;;;;7.30;3.67;;;;;;;;;;4964392;28;20114;-77
2022/10/14 12:46:07;;;;;;;7.40;3.97;;;;;;;;;;4961841;28;20604;-78
2022/10/14 12:48:33;;;;;;;6.88;3.58;;;;;;;;;;4953569;28;20658;-77
2022/10/14 12:51:14;;;;;;;7.53;2.60;;;;;;;;;;4941647;28;20029;-78
2022/10/14 12:53:47;;;;;;;6.85;2.40;;;;;;;;;;4965915;28;20496;-75
2022/10/14 12:56:26;;;;;;;5.60;1.90;;;;;;;;;;4966216;28;20033;-75
2022/10/14 12:58:56;;;;;;;8.23;1.95;;;;;;;;;;4966593;28;20037;-75
2022/10/14 13:01:24;;;;;;;7.32;2.05;;;;;;;;;;4967078;28;20075;-76
2022/10/14 13:03:55;;;;;;;4.65;1.80;;;;;;;;;;4963217;28;20365;-76
2022/10/14 13:06:35;;;;;;;4.82;1.70;;;;;;;;;;4962710;28;20034;-76
2022/10/14 13:09:14;;;;;;;6.53;2.00;;;;;;;;;;4967051;28;20126;-76
2022/10/14 13:11:43;;;;;;;7.32;2.00;;;;;;;;;;4957916;28;20655;-76
2022/10/14 13:14:21;;;;;;;8.45;1.98;;;;;;;;;;4952815;28;20266;-77
2022/10/14 13:16:54;;;;;;;8.52;2.25;;;;;;;;;;4954662;28;20029;-76
2022/10/14 13:19:43;;;;;;;9.38;2.53;;;;;;;;;;4952769;28;20041;-75
2022/10/14 13:22:37;;;;;;;9.10;2.50;;;;;;;;;;4971423;28;20091;-78
2022/10/14 13:25:11;;;;;;;8.23;2.42;;;;;;;;;;4952380;28;20044;-75
2022/10/14 13:27:44;;;;;;;7.03;2.30;;;;;;;;;;4970875;28;20243;-76
2022/10/14 13:30:15;;;;;;;11.23;2.80;;;;;;;;;;4957433;28;20042;-75
2022/10/14 13:33:07;;;;;;;6.72;2.33;;;;;;;;;;4963755;28;20047;-75
2022/10/14 13:35:37;;;;;;;6.18;2.63;;;;;;;;;;4958660;28;20542;-77
2022/10/14 13:38:06;;;;;;;5.88;2.60;;;;;;;;;;4966261;28;20193;-75
2022/10/14 13:40:36;;;;;;;7.88;2.80;;;;;;;;;;4965083;28;20904;-76
2022/10/14 13:43:05;;;;;;;8.98;3.10;;;;;;;;;;4936638;28;20205;-76
2022/10/14 13:45:44;;;;;;;8.40;2.97;;;;;;;;;;4960807;28;20676;-76
2022/10/14 13:48:12;;;;;;;;;;;;;;;;;;4963375;28;20520;-76
2022/10/14 13:50:38;;;;;;;5.43;2.58;;;;;;;;;;4961654;28;20268;-77
2022/10/14 13:53:06;;;;;;;6.97;2.80;;;;;;;;;;4962689;28;20471;-75
2022/10/14 13:55:44;;;;;;;7.60;2.90;;;;;;;;;;4966785;28;20065;-77
2022/10/14 13:58:14;;;;;;;10.20;3.42;;;;;;;;;;4962517;28;20609;-77
2022/10/14 14:01:00;;;;;;;9.13;3.20;;;;;;;;;;4960481;28;20136;-77
2022/10/14 14:03:33;;;;;;;9.75;2.60;;;;;;;;;;4961235;28;20041;-78
2022/10/14 14:05:59;;;;;;;9.57;3.20;;;;;;;;;;4966082;28;20033;-76
2022/10/14 14:08:26;;;;;;;7.15;2.70;;;;;;;;;;4962568;28;20229;-76
2022/10/14 14:10:53;;;;;;;7.22;3.17;;;;;;;;;;4951151;28;20258;-78
2022/10/14 14:13:20;;;;;;;8.70;2.53;;;;;;;;;;4957019;28;20044;-76
2022/10/14 14:15:49;;;;;;;7.72;3.40;;;;;;;;;;4960931;28;20037;-75
2022/10/14 14:18:44;;;;;;;7.25;3.10;;;;;;;;;;4952699;28;20201;-75
2022/10/14 14:21:12;;;;;;;4.95;2.33;;;;;;;;;;4938766;28;20045;-76
2022/10/14 14:24:07;;;;;;;6.03;2.40;;;;;;;;;;4969355;28;20472;-76
2022/10/14 14:26:36;;;;;;;10.60;3.08;;;;;;;;;;4936127;28;20049;-76
2022/10/14 14:29:06;;;;;;;6.88;2.20;;;;;;;;;;4958401;28;20044;-76
2022/10/14 14:31:31;;;;;;;7.90;2.28;;;;;;;;;;4970921;28;20049;-78
2022/10/14 14:34:03;;;;;;;8.02;1.98;;;;;;;;;;4953718;28;20145;-77
2022/10/14 14:36:29;;;;;;;6.80;1.92;;;;;;;;;;4963215;28;20029;-76
2022/10/14 14:38:59;;;;;;;4.30;2.00;;;;;;;;;;4967353;28;20026;-75
2022/10/14 14:41:29;;;;;;;7.00;2.63;;;;;;;;;;4965214;28;20739;-75
2022/10/14 14:43:59;;;;;;;8.27;2.30;;;;;;;;;;4956641;28;20069;-76
2022/10/14 14:46:35;;;;;;;8.07;2.13;;;;;;;;;;4962715;28;20198;-77
2022/10/14 14:49:00;;;;;;;11.02;2.20;;;;;;;;;;4959291;28;22040;-75
2022/10/14 14:51:34;;;;;;;7.95;2.10;;;;;;;;;;4960450;28;20065;-76
2022/10/14 14:54:01;;;;;;;7.85;2.05;;;;;;;;;;4959305;28;20060;-75
2022/10/14 14:56:32;;;;;;;7.35;1.98;;;;;;;;;;4952770;28;20957;-75